createdAt,value
2019-04-23T00:00:07.576Z,0.00
2019-04-23T00:01:16.353Z,0.00
2019-04-23T00:02:04.059Z,0.00
2019-04-23T00:03:18.788Z,0.00
2019-04-23T00:04:05.739Z,0.00
2019-04-23T00:05:02.082Z,0.00
2019-04-23T00:06:15.079Z,0.00
2019-04-23T00:07:15.801Z,0.00
2019-04-23T00:08:11.272Z,0.00
2019-04-23T00:09:13.066Z,0.00
2019-04-23T00:10:12.313Z,0.00
2019-04-23T00:11:05.354Z,0.00
2019-04-23T00:12:09.964Z,0.00
2019-04-23T00:13:03.972Z,0.00
2019-04-23T00:14:05.761Z,0.00
2019-04-23T00:15:08.881Z,0.00
2019-04-23T00:16:15.434Z,0.00
2019-04-23T00:17:04.503Z,0.00
2019-04-23T00:18:02.815Z,0.00
2019-04-23T00:19:06.004Z,0.00
2019-04-23T00:20:09.705Z,0.00
2019-04-23T00:21:05.810Z,0.00
2019-04-23T00:22:07.302Z,0.00
2019-04-23T00:23:11.048Z,0.00
2019-04-23T00:24:13.813Z,0.00
2019-04-23T00:25:25.062Z,0.00
2019-04-23T00:26:18.021Z,0.00
2019-04-23T00:27:19.663Z,0.00
2019-04-23T00:29:18.961Z,0.00
2019-04-23T00:30:03.908Z,0.00
2019-04-23T00:31:15.496Z,0.00
2019-04-23T00:32:12.054Z,0.00
2019-04-23T00:33:05.367Z,0.00
2019-04-23T00:34:24.960Z,0.00
2019-04-23T00:35:05.948Z,0.00
2019-04-23T00:36:07.002Z,0.00
2019-04-23T00:37:13.173Z,0.00
2019-04-23T00:38:13.937Z,0.00
2019-04-23T00:39:01.374Z,0.00
2019-04-23T00:40:02.631Z,0.00
2019-04-23T00:41:02.857Z,0.00
2019-04-23T00:42:08.526Z,0.00
2019-04-23T00:43:08.587Z,0.00
2019-04-23T00:45:00.371Z,0.00
2019-04-23T00:46:04.269Z,0.00
2019-04-23T00:47:06.436Z,0.00
2019-04-23T00:48:12.723Z,0.00
2019-04-23T00:49:10.783Z,0.00
2019-04-23T00:50:30.252Z,0.00
2019-04-23T00:50:58.469Z,0.00
2019-04-23T00:52:09.571Z,0.00
2019-04-23T00:53:03.834Z,0.00
2019-04-23T00:54:06.004Z,0.00
2019-04-23T00:57:07.410Z,0.00
2019-04-23T00:59:08.386Z,0.00
2019-04-23T01:00:13.925Z,0.00
2019-04-23T01:01:03.594Z,0.00
2019-04-23T01:02:03.893Z,0.00
2019-04-23T01:03:06.081Z,0.00
2019-04-23T01:04:12.333Z,0.00
2019-04-23T01:05:11.431Z,0.00
2019-04-23T01:06:08.099Z,0.00
2019-04-23T01:07:07.565Z,0.00
2019-04-23T01:08:07.165Z,0.00
2019-04-23T01:09:03.726Z,0.00
2019-04-23T01:10:10.109Z,0.00
2019-04-23T01:12:07.446Z,0.00
2019-04-23T01:13:08.627Z,0.00
2019-04-23T01:15:04.721Z,0.00
2019-04-23T01:16:18.105Z,0.00
2019-04-23T01:17:08.608Z,0.00
2019-04-23T01:18:15.951Z,0.00
2019-04-23T01:18:59.575Z,0.00
2019-04-23T01:20:04.751Z,0.00
2019-04-23T01:20:53.454Z,0.00
2019-04-23T01:21:43.437Z,0.00
2019-04-23T01:22:44.313Z,0.00
2019-04-23T01:23:51.611Z,0.00
2019-04-23T01:24:44.652Z,0.00
2019-04-23T01:25:54.655Z,0.00
2019-04-23T01:27:23.853Z,0.00
2019-04-23T01:28:09.375Z,0.00
2019-04-23T01:29:08.268Z,0.00
2019-04-23T01:30:09.527Z,0.00
2019-04-23T01:31:23.266Z,0.00
2019-04-23T01:32:14.155Z,0.00
2019-04-23T01:33:11.070Z,0.00
2019-04-23T01:34:13.488Z,0.00
2019-04-23T01:35:17.881Z,0.00
2019-04-23T01:37:14.811Z,0.00
2019-04-23T01:38:07.749Z,0.00
2019-04-23T01:39:11.748Z,0.00
2019-04-23T01:40:15.290Z,0.00
2019-04-23T01:41:09.768Z,0.00
2019-04-23T01:42:16.580Z,0.00
2019-04-23T01:43:10.912Z,0.00
2019-04-23T01:44:03.965Z,0.00
2019-04-23T01:45:13.278Z,0.00
2019-04-23T01:46:09.866Z,0.00
2019-04-23T01:47:14.969Z,0.00
2019-04-23T01:48:10.663Z,0.00
2019-04-23T01:49:05.966Z,0.00
2019-04-23T01:50:13.969Z,0.00
2019-04-23T01:51:01.398Z,0.00
2019-04-23T01:52:12.611Z,0.00
2019-04-23T01:53:14.335Z,0.00
2019-04-23T01:54:09.555Z,0.00
2019-04-23T01:55:08.332Z,0.00
2019-04-23T01:56:04.913Z,0.00
2019-04-23T01:57:11.119Z,0.00
2019-04-23T01:59:13.522Z,0.00
2019-04-23T02:01:06.812Z,0.00
2019-04-23T02:02:14.346Z,0.00
2019-04-23T02:03:10.353Z,0.00
2019-04-23T02:04:14.712Z,0.00
2019-04-23T02:05:16.035Z,0.00
2019-04-23T02:06:11.045Z,0.00
2019-04-23T02:07:15.499Z,0.00
2019-04-23T02:08:11.003Z,0.00
2019-04-23T02:09:06.565Z,0.00
2019-04-23T02:10:17.019Z,0.00
2019-04-23T02:11:07.943Z,0.00
2019-04-23T02:12:11.538Z,0.00
2019-04-23T02:13:12.640Z,0.00
2019-04-23T02:14:08.308Z,0.00
2019-04-23T02:15:12.149Z,0.00
2019-04-23T02:16:04.336Z,0.00
2019-04-23T02:17:10.262Z,0.00
2019-04-23T02:18:13.742Z,0.00
2019-04-23T02:19:10.245Z,0.00
2019-04-23T02:21:07.842Z,0.00
2019-04-23T02:22:03.956Z,0.00
2019-04-23T02:25:16.202Z,0.00
2019-04-23T02:26:10.700Z,0.00
2019-04-23T02:27:13.522Z,0.00
2019-04-23T02:28:09.084Z,0.00
2019-04-23T02:30:28.945Z,0.00
2019-04-23T02:32:09.216Z,0.00
2019-04-23T02:35:29.993Z,0.00
2019-04-23T02:36:07.428Z,0.00
2019-04-23T02:39:31.202Z,0.00
2019-04-23T02:40:30.363Z,0.00
2019-04-23T02:44:19.889Z,0.00
2019-04-23T02:45:16.003Z,0.00
2019-04-23T02:46:09.213Z,0.00
2019-04-23T02:47:19.337Z,0.00
2019-04-23T02:48:22.391Z,0.00
2019-04-23T02:49:20.544Z,0.00
2019-04-23T02:50:32.939Z,0.00
2019-04-23T02:51:10.747Z,0.00
2019-04-23T02:52:16.228Z,0.00
2019-04-23T02:53:31.734Z,0.00
2019-04-23T02:54:26.607Z,0.00
2019-04-23T02:55:19.316Z,0.00
2019-04-23T02:57:29.793Z,0.00
2019-04-23T02:58:21.409Z,0.00
2019-04-23T02:59:21.380Z,0.00
2019-04-23T03:00:18.943Z,0.00
2019-04-23T03:02:30.259Z,0.00
2019-04-23T03:03:14.239Z,0.00
2019-04-23T03:04:16.804Z,0.00
2019-04-23T03:05:13.253Z,0.00
2019-04-23T03:09:14.363Z,0.00
2019-04-23T03:11:20.373Z,0.00
2019-04-23T03:12:14.733Z,0.00
2019-04-23T03:13:29.512Z,0.00
2019-04-23T03:15:21.758Z,0.00
2019-04-23T03:17:25.946Z,0.00
2019-04-23T03:18:35.036Z,0.00
2019-04-23T03:19:15.314Z,0.00
2019-04-23T03:20:21.382Z,0.00
2019-04-23T03:21:27.053Z,0.00
2019-04-23T03:22:25.662Z,0.00
2019-04-23T03:23:34.901Z,0.00
2019-04-23T03:25:21.323Z,0.00
2019-04-23T03:27:22.940Z,0.00
2019-04-23T03:28:23.135Z,0.00
2019-04-23T03:29:21.851Z,0.00
2019-04-23T03:30:16.424Z,0.00
2019-04-23T03:32:52.020Z,0.00
2019-04-23T03:35:10.686Z,0.00
2019-04-23T03:36:01.969Z,0.00
2019-04-23T03:38:21.526Z,0.00
2019-04-23T03:39:02.413Z,0.00
2019-04-23T03:40:12.188Z,0.00
2019-04-23T03:43:16.098Z,0.00
2019-04-23T03:44:14.056Z,0.00
2019-04-23T03:46:23.225Z,0.00
2019-04-23T03:47:18.713Z,0.00
2019-04-23T03:48:16.890Z,0.00
2019-04-23T03:49:05.574Z,5.63
2019-04-23T03:50:18.012Z,5.63
2019-04-23T03:51:11.829Z,5.63
2019-04-23T03:52:24.981Z,5.63
2019-04-23T03:53:14.077Z,5.63
2019-04-23T03:54:26.030Z,5.63
2019-04-23T03:56:44.812Z,5.63
2019-04-23T03:58:15.983Z,5.63
2019-04-23T03:59:19.988Z,11.25
2019-04-23T04:00:35.217Z,11.25
2019-04-23T04:01:13.992Z,11.25
2019-04-23T04:03:27.587Z,11.25
2019-04-23T04:05:10.704Z,16.88
2019-04-23T04:07:18.552Z,16.88
2019-04-23T04:08:18.071Z,16.88
2019-04-23T04:09:28.691Z,16.88
2019-04-23T04:10:05.048Z,16.88
2019-04-23T04:12:30.064Z,22.50
2019-04-23T04:13:20.051Z,22.50
2019-04-23T04:14:23.693Z,22.50
2019-04-23T04:15:47.116Z,22.50
2019-04-23T04:17:17.862Z,28.13
2019-04-23T04:19:31.591Z,28.13
2019-04-23T04:20:15.236Z,28.13
2019-04-23T04:21:16.139Z,28.13
2019-04-23T04:22:21.074Z,28.13
2019-04-23T04:23:22.510Z,33.75
2019-04-23T04:24:22.439Z,33.75
2019-04-23T04:25:14.482Z,33.75
2019-04-23T04:26:13.805Z,33.75
2019-04-23T04:28:28.593Z,33.75
2019-04-23T04:29:21.006Z,39.38
2019-04-23T04:30:12.420Z,39.38
2019-04-23T04:31:34.668Z,39.38
2019-04-23T04:32:03.576Z,39.38
2019-04-23T04:33:26.223Z,39.38
2019-04-23T04:38:28.846Z,45.00
2019-04-23T04:39:05.376Z,45.00
2019-04-23T04:40:23.385Z,45.00
2019-04-23T04:41:13.934Z,50.63
2019-04-23T04:42:10.478Z,50.63
2019-04-23T04:43:26.869Z,50.63
2019-04-23T04:44:27.266Z,50.63
2019-04-23T04:45:28.193Z,50.63
2019-04-23T04:46:21.232Z,50.63
2019-04-23T04:47:14.849Z,56.25
2019-04-23T04:48:09.920Z,56.25
2019-04-23T04:49:11.907Z,56.25
2019-04-23T04:50:06.547Z,56.25
2019-04-23T04:53:22.115Z,56.25
2019-04-23T04:55:15.601Z,61.88
2019-04-23T04:56:28.059Z,61.88
2019-04-23T04:58:13.098Z,61.88
2019-04-23T04:59:08.628Z,61.88
2019-04-23T05:00:21.514Z,61.88
2019-04-23T05:01:25.502Z,67.50
2019-04-23T05:03:19.377Z,67.50
2019-04-23T05:04:14.029Z,67.50
2019-04-23T05:07:11.025Z,67.50
2019-04-23T05:08:13.812Z,73.13
2019-04-23T05:12:20.800Z,73.13
2019-04-23T05:14:06.775Z,73.13
2019-04-23T05:16:14.013Z,78.75
2019-04-23T05:17:28.112Z,78.75
2019-04-23T05:22:06.563Z,78.75
2019-04-23T05:23:15.842Z,84.38
2019-04-23T05:25:05.711Z,84.38
2019-04-23T05:26:08.470Z,84.38
2019-04-23T05:27:04.716Z,84.38
2019-04-23T05:28:28.494Z,84.38
2019-04-23T05:29:04.861Z,90.00
2019-04-23T05:30:09.855Z,90.00
2019-04-23T05:31:05.731Z,90.00
2019-04-23T05:32:07.600Z,90.00
2019-04-23T05:33:11.843Z,90.00
2019-04-23T05:34:02.580Z,90.00
2019-04-23T05:35:06.720Z,95.63
2019-04-23T05:37:07.061Z,95.63
2019-04-23T05:40:20.125Z,101.25
2019-04-23T05:41:10.414Z,101.25
2019-04-23T05:42:05.712Z,101.25
2019-04-23T05:43:03.300Z,101.25
2019-04-23T05:44:10.442Z,101.25
2019-04-23T05:45:06.095Z,101.25
2019-04-23T05:46:10.146Z,106.88
2019-04-23T05:47:12.545Z,106.88
2019-04-23T05:49:06.905Z,106.88
2019-04-23T05:50:11.514Z,112.50
2019-04-23T05:51:16.352Z,112.50
2019-04-23T05:52:27.877Z,112.50
2019-04-23T05:53:05.915Z,112.50
2019-04-23T05:54:06.515Z,112.50
2019-04-23T05:55:07.608Z,118.13
2019-04-23T05:56:20.652Z,118.13
2019-04-23T05:57:01.764Z,118.13
2019-04-23T05:58:08.586Z,118.13
2019-04-23T05:59:07.182Z,118.13
2019-04-23T06:00:04.129Z,123.75
2019-04-23T06:01:26.385Z,118.13
2019-04-23T06:04:12.232Z,118.13
2019-04-23T06:05:03.561Z,123.75
2019-04-23T06:06:11.303Z,123.75
2019-04-23T06:07:15.101Z,123.75
2019-04-23T06:08:09.513Z,129.38
2019-04-23T06:09:10.547Z,129.38
2019-04-23T06:10:09.122Z,129.38
2019-04-23T06:11:11.911Z,129.38
2019-04-23T06:12:00.164Z,129.38
2019-04-23T06:13:08.040Z,135.00
2019-04-23T06:14:19.150Z,135.00
2019-04-23T06:15:05.725Z,135.00
2019-04-23T06:16:04.974Z,135.00
2019-04-23T06:18:08.060Z,140.63
2019-04-23T06:19:07.423Z,140.63
2019-04-23T06:19:57.097Z,146.25
2019-04-23T06:21:10.121Z,146.25
2019-04-23T06:22:19.989Z,146.25
2019-04-23T06:23:05.455Z,151.88
2019-04-23T06:24:14.277Z,151.88
2019-04-23T06:25:31.246Z,151.88
2019-04-23T06:26:19.211Z,151.88
2019-04-23T06:27:06.918Z,157.50
2019-04-23T06:28:09.513Z,157.50
2019-04-23T06:29:08.899Z,157.50
2019-04-23T06:30:00.872Z,163.13
2019-04-23T06:31:58.501Z,163.13
2019-04-23T06:33:11.192Z,168.75
2019-04-23T06:34:12.075Z,168.75
2019-04-23T06:35:13.881Z,168.75
2019-04-23T06:36:05.637Z,168.75
2019-04-23T06:37:03.519Z,168.75
2019-04-23T06:38:26.181Z,168.75
2019-04-23T06:40:05.348Z,174.38
2019-04-23T06:41:06.800Z,174.38
2019-04-23T06:42:00.341Z,174.38
2019-04-23T06:43:06.522Z,180.00
2019-04-23T06:44:59.701Z,185.63
2019-04-23T06:46:08.376Z,185.63
2019-04-23T06:47:03.218Z,185.63
2019-04-23T06:48:10.033Z,191.25
2019-04-23T06:49:00.730Z,196.88
2019-04-23T06:50:00.100Z,202.50
2019-04-23T06:51:04.243Z,236.25
2019-04-23T06:52:15.205Z,382.50
2019-04-23T06:52:59.490Z,343.13
2019-04-23T06:54:04.849Z,230.63
2019-04-23T06:55:01.683Z,241.88
2019-04-23T06:56:06.649Z,247.50
2019-04-23T06:57:16.350Z,410.63
2019-04-23T06:58:08.364Z,1271.25
2019-04-23T06:59:06.368Z,2154.38
2019-04-23T07:00:13.563Z,2098.13
2019-04-23T07:02:06.403Z,1001.25
2019-04-23T07:03:10.848Z,1766.25
2019-04-23T07:04:05.595Z,2300.63
2019-04-23T07:07:23.887Z,2407.50
2019-04-23T07:08:04.323Z,2385.00
2019-04-23T07:09:10.536Z,2385.00
2019-04-23T07:09:59.382Z,2407.50
2019-04-23T07:11:09.631Z,2407.50
2019-04-23T07:12:02.423Z,2379.38
2019-04-23T07:13:04.859Z,2418.75
2019-04-23T07:15:13.300Z,2480.63
2019-04-23T07:16:07.765Z,2435.63
2019-04-23T07:17:03.942Z,2430.00
2019-04-23T07:18:05.810Z,2525.63
2019-04-23T07:20:01.239Z,2812.50
2019-04-23T07:21:06.541Z,2750.63
2019-04-23T07:22:09.670Z,2649.38
2019-04-23T07:23:05.244Z,2671.88
2019-04-23T07:25:09.630Z,2812.50
2019-04-23T07:26:08.047Z,2784.38
2019-04-23T07:27:01.351Z,2733.75
2019-04-23T07:28:07.130Z,2649.38
2019-04-23T07:29:00.009Z,2598.75
2019-04-23T07:30:08.302Z,2666.25
2019-04-23T07:31:07.381Z,2812.50
2019-04-23T07:32:00.470Z,2925.00
2019-04-23T07:33:08.735Z,2930.63
2019-04-23T07:34:01.105Z,2655.00
2019-04-23T07:38:28.711Z,483.75
2019-04-23T07:40:17.669Z,478.13
2019-04-23T07:41:12.017Z,478.13
2019-04-23T07:42:13.394Z,483.75
2019-04-23T07:43:06.466Z,483.75
2019-04-23T07:44:14.191Z,489.38
2019-04-23T07:45:01.920Z,506.25
2019-04-23T07:46:12.265Z,691.88
2019-04-23T07:48:13.724Z,1490.63
2019-04-23T07:49:08.429Z,1518.75
2019-04-23T07:50:19.097Z,1524.38
2019-04-23T07:51:06.123Z,1563.75
2019-04-23T07:52:12.859Z,1710.00
2019-04-23T07:53:17.322Z,1895.63
2019-04-23T07:55:06.780Z,1918.13
2019-04-23T07:56:03.749Z,1901.25
2019-04-23T07:57:08.912Z,1890.00
2019-04-23T07:58:06.471Z,1935.00
2019-04-23T07:59:05.749Z,1996.88
2019-04-23T08:00:00.483Z,1946.25
2019-04-23T08:01:14.208Z,1833.75
2019-04-23T08:02:11.557Z,1766.25
2019-04-23T08:03:10.908Z,1479.38
2019-04-23T08:04:04.708Z,1080.00
2019-04-23T08:05:11.260Z,1209.38
2019-04-23T08:06:03.937Z,2598.75
2019-04-23T08:07:10.959Z,3566.25
2019-04-23T08:08:01.684Z,3555.00
2019-04-23T08:09:02.330Z,3594.38
2019-04-23T08:10:02.256Z,3555.00
2019-04-23T08:11:25.912Z,3645.00
2019-04-23T08:12:04.808Z,3768.75
2019-04-23T08:13:14.433Z,3813.75
2019-04-23T08:16:06.846Z,3375.00
2019-04-23T08:16:58.208Z,3465.00
2019-04-23T08:18:06.994Z,3639.38
2019-04-23T08:18:57.715Z,3819.38
2019-04-23T08:20:14.166Z,3909.38
2019-04-23T08:21:04.924Z,3960.00
2019-04-23T08:22:13.885Z,3954.38
2019-04-23T08:23:06.775Z,3915.00
2019-04-23T08:24:02.293Z,3791.25
2019-04-23T08:25:06.729Z,3774.38
2019-04-23T08:26:13.903Z,3780.00
2019-04-23T08:27:04.515Z,2565.00
2019-04-23T08:28:06.152Z,922.50
2019-04-23T08:29:12.866Z,736.88
2019-04-23T08:30:00.472Z,725.63
2019-04-23T08:30:59.018Z,720.00
2019-04-23T08:32:09.035Z,714.38
2019-04-23T08:33:09.082Z,708.75
2019-04-23T08:34:25.571Z,703.13
2019-04-23T08:35:01.237Z,697.50
2019-04-23T08:36:09.466Z,691.88
2019-04-23T08:37:04.972Z,691.88
2019-04-23T08:39:05.477Z,680.63
2019-04-23T08:40:02.594Z,675.00
2019-04-23T08:41:12.357Z,669.38
2019-04-23T08:42:21.628Z,669.38
2019-04-23T08:43:08.980Z,669.38
2019-04-23T08:44:11.304Z,658.13
2019-04-23T08:45:09.141Z,652.50
2019-04-23T08:46:08.159Z,652.50
2019-04-23T08:47:20.297Z,646.88
2019-04-23T08:48:09.258Z,641.25
2019-04-23T08:49:05.063Z,630.00
2019-04-23T08:50:02.260Z,630.00
2019-04-23T08:51:11.291Z,624.38
2019-04-23T08:53:17.953Z,613.13
2019-04-23T08:54:04.379Z,607.50
2019-04-23T08:55:07.595Z,607.50
2019-04-23T08:56:20.609Z,601.88
2019-04-23T08:57:58.059Z,590.63
2019-04-23T08:59:06.969Z,590.63
2019-04-23T09:00:17.914Z,585.00
2019-04-23T09:01:05.506Z,585.00
2019-04-23T09:03:04.601Z,579.38
2019-04-23T09:04:04.280Z,568.13
2019-04-23T09:05:23.528Z,573.75
2019-04-23T09:06:08.058Z,568.13
2019-04-23T09:07:11.419Z,562.50
2019-04-23T09:08:07.124Z,562.50
2019-04-23T09:09:06.947Z,562.50
2019-04-23T09:10:07.887Z,562.50
2019-04-23T09:11:19.434Z,562.50
2019-04-23T09:12:01.151Z,562.50
2019-04-23T09:13:32.121Z,556.88
2019-04-23T09:14:05.202Z,556.88
2019-04-23T09:15:11.406Z,556.88
2019-04-23T09:16:15.542Z,556.88
2019-04-23T09:17:04.889Z,556.88
2019-04-23T09:18:06.237Z,562.50
2019-04-23T09:19:11.233Z,568.13
2019-04-23T09:20:17.947Z,562.50
2019-04-23T09:21:03.486Z,556.88
2019-04-23T09:22:07.256Z,556.88
2019-04-23T09:22:54.742Z,556.88
2019-04-23T09:23:59.039Z,568.13
2019-04-23T09:25:02.729Z,568.13
2019-04-23T09:25:57.597Z,568.13
2019-04-23T09:27:05.592Z,568.13
2019-04-23T09:27:59.862Z,568.13
2019-04-23T09:31:08.967Z,573.75
2019-04-23T09:33:11.805Z,585.00
2019-04-23T09:35:05.961Z,590.63
2019-04-23T09:36:03.042Z,590.63
2019-04-23T09:37:04.714Z,596.25
2019-04-23T09:38:03.625Z,601.88
2019-04-23T09:39:06.332Z,596.25
2019-04-23T09:40:11.873Z,601.88
2019-04-23T09:41:20.122Z,613.13
2019-04-23T09:42:03.912Z,618.75
2019-04-23T09:44:03.091Z,641.25
2019-04-23T09:45:03.740Z,635.63
2019-04-23T09:46:04.726Z,646.88
2019-04-23T09:47:08.371Z,658.13
2019-04-23T09:48:03.580Z,663.75
2019-04-23T09:49:09.345Z,675.00
2019-04-23T09:50:01.752Z,686.25
2019-04-23T09:51:02.459Z,703.13
2019-04-23T09:52:11.166Z,714.38
2019-04-23T09:53:11.568Z,731.25
2019-04-23T09:54:08.296Z,753.75
2019-04-23T09:55:11.980Z,787.50
2019-04-23T09:55:51.446Z,1248.75
2019-04-23T09:56:58.547Z,3020.63
2019-04-23T09:58:03.062Z,3504.38
2019-04-23T09:59:10.905Z,3330.00
2019-04-23T10:00:25.601Z,3571.88
2019-04-23T10:01:00.365Z,4066.88
2019-04-23T10:01:59.499Z,4483.13
2019-04-23T10:02:53.369Z,4590.00
2019-04-23T10:03:47.569Z,4432.50
2019-04-23T10:04:48.781Z,4415.63
2019-04-23T10:05:46.394Z,4595.63
2019-04-23T10:06:38.947Z,4786.88
2019-04-23T10:07:44.255Z,4758.75
2019-04-23T10:08:39.478Z,4584.38
2019-04-23T10:09:36.235Z,4601.25
2019-04-23T10:10:34.625Z,4702.50
2019-04-23T10:11:34.726Z,4770.00
2019-04-23T10:12:35.719Z,4848.75
2019-04-23T10:13:34.613Z,4910.63
2019-04-23T10:14:34.603Z,4888.13
2019-04-23T10:15:38.846Z,5051.25
2019-04-23T10:16:34.596Z,5175.00
2019-04-23T10:17:35.989Z,5304.38
2019-04-23T10:18:35.255Z,5220.00
2019-04-23T10:19:35.078Z,4989.38
2019-04-23T10:20:34.578Z,4702.50
2019-04-23T10:21:35.319Z,4651.88
2019-04-23T10:22:37.583Z,4651.88
2019-04-23T10:23:34.564Z,4691.25
2019-04-23T10:24:35.075Z,4674.38
2019-04-23T10:25:35.976Z,4550.63
2019-04-23T10:26:34.553Z,4398.75
2019-04-23T10:27:35.081Z,4455.00
2019-04-23T10:28:35.939Z,4584.38
2019-04-23T10:29:36.245Z,4730.63
2019-04-23T10:30:34.541Z,4995.00
2019-04-23T10:31:35.714Z,5259.38
2019-04-23T10:32:35.847Z,5574.38
2019-04-23T10:33:34.533Z,5720.63
2019-04-23T10:34:45.021Z,5838.75
2019-04-23T10:35:44.816Z,5872.50
2019-04-23T10:36:36.164Z,5776.88
2019-04-23T10:37:46.081Z,5540.63
2019-04-23T10:38:36.272Z,5338.13
2019-04-23T10:39:37.785Z,5371.88
2019-04-23T10:40:38.888Z,5293.13
2019-04-23T10:41:35.802Z,5113.13
2019-04-23T10:42:38.478Z,4786.88
2019-04-23T10:43:39.188Z,4545.00
2019-04-23T10:44:35.456Z,4803.75
2019-04-23T10:45:48.428Z,5085.00
2019-04-23T10:46:53.203Z,5175.00
2019-04-23T10:48:17.318Z,5231.25
2019-04-23T10:49:12.899Z,5113.13
2019-04-23T10:50:05.700Z,5180.63
2019-04-23T10:50:58.806Z,5214.38
2019-04-23T10:52:07.047Z,5225.63
2019-04-23T10:53:09.266Z,5034.38
2019-04-23T10:54:59.108Z,4426.88
2019-04-23T10:56:00.961Z,4095.00
2019-04-23T10:56:59.019Z,3735.00
2019-04-23T10:58:01.914Z,3757.50
2019-04-23T10:59:06.582Z,2041.88
2019-04-23T10:59:53.661Z,3369.38
2019-04-23T11:01:23.338Z,4741.88
2019-04-23T11:02:25.072Z,2750.63
2019-04-23T11:03:14.040Z,5023.13
2019-04-23T11:04:32.869Z,4905.00
2019-04-23T11:07:09.544Z,4966.88
2019-04-23T11:08:06.956Z,5085.00
2019-04-23T11:09:06.198Z,5191.88
2019-04-23T11:10:05.584Z,5068.13
2019-04-23T11:11:09.397Z,5118.75
2019-04-23T11:12:16.337Z,5130.00
2019-04-23T11:13:00.788Z,4179.38
2019-04-23T11:15:09.234Z,5191.88
2019-04-23T11:17:30.362Z,967.50
2019-04-23T11:18:13.480Z,5248.13
2019-04-23T11:19:10.764Z,5287.50
2019-04-23T11:20:17.853Z,5118.75
2019-04-23T11:21:09.304Z,4916.25
2019-04-23T11:22:19.955Z,4730.63
2019-04-23T11:23:11.540Z,4860.00
2019-04-23T11:24:11.849Z,4117.50
2019-04-23T11:25:18.746Z,5197.50
2019-04-23T11:26:10.908Z,4983.75
2019-04-23T11:27:05.414Z,1929.38
2019-04-23T11:28:10.259Z,4826.25
2019-04-23T11:29:09.563Z,4888.13
2019-04-23T11:30:14.408Z,4893.75
2019-04-23T11:31:09.390Z,4944.38
2019-04-23T11:32:23.868Z,4938.75
2019-04-23T11:33:10.098Z,4916.25
2019-04-23T11:35:17.557Z,4747.50
2019-04-23T11:37:06.019Z,4685.63
2019-04-23T11:38:22.100Z,4854.38
2019-04-23T11:39:00.632Z,4848.75
2019-04-23T11:40:13.659Z,4758.75
2019-04-23T11:41:00.890Z,4837.50
2019-04-23T11:43:20.324Z,4561.88
2019-04-23T11:44:02.319Z,4471.88
2019-04-23T11:45:06.857Z,4528.13
2019-04-23T11:46:32.570Z,4522.50
2019-04-23T11:49:20.150Z,4933.13
2019-04-23T11:50:12.345Z,4871.25
2019-04-23T11:52:07.891Z,4016.25
2019-04-23T11:53:10.386Z,4567.50
2019-04-23T11:54:01.603Z,4618.13
2019-04-23T11:55:14.029Z,4584.38
2019-04-23T11:57:22.162Z,4612.50
2019-04-23T11:58:14.784Z,4708.13
2019-04-23T11:59:07.069Z,916.88
2019-04-23T12:00:05.929Z,3645.00
2019-04-23T12:01:11.623Z,4921.88
2019-04-23T12:02:01.300Z,4781.25
2019-04-23T12:03:10.950Z,4899.38
2019-04-23T12:04:14.095Z,4477.50
2019-04-23T12:05:12.995Z,4983.75
2019-04-23T12:06:07.819Z,4933.13
2019-04-23T12:08:09.373Z,4764.38
2019-04-23T12:08:58.996Z,4725.00
2019-04-23T12:10:07.297Z,4781.25
2019-04-23T12:11:58.541Z,4584.38
2019-04-23T12:13:10.578Z,4567.50
2019-04-23T12:14:09.582Z,4432.50
2019-04-23T12:15:05.780Z,4421.25
2019-04-23T12:16:06.658Z,3903.75
2019-04-23T12:18:11.101Z,3712.50
2019-04-23T12:19:23.291Z,4235.63
2019-04-23T12:20:57.405Z,1029.38
2019-04-23T12:22:15.181Z,2880.00
2019-04-23T12:23:19.071Z,1147.50
2019-04-23T12:24:15.691Z,4331.25
2019-04-23T12:26:03.415Z,849.38
2019-04-23T12:27:25.326Z,686.25
2019-04-23T12:28:01.740Z,736.88
2019-04-23T12:29:27.409Z,2266.88
2019-04-23T12:30:06.093Z,731.25
2019-04-23T12:30:59.328Z,680.63
2019-04-23T12:32:18.154Z,843.75
2019-04-23T12:34:09.615Z,2070.00
2019-04-23T12:36:04.775Z,1192.50
2019-04-23T12:37:12.659Z,4207.50
2019-04-23T12:38:00.977Z,1136.25
2019-04-23T12:39:08.756Z,1125.00
2019-04-23T12:40:12.924Z,1490.63
2019-04-23T12:41:27.113Z,1479.38
2019-04-23T12:42:24.713Z,3853.13
2019-04-23T12:43:07.797Z,3920.63
2019-04-23T12:43:58.049Z,4016.25
2019-04-23T12:45:57.743Z,4151.25
2019-04-23T12:47:25.456Z,838.13
2019-04-23T12:48:28.194Z,888.75
2019-04-23T12:49:13.087Z,3763.13
2019-04-23T12:50:34.800Z,928.13
2019-04-23T12:51:28.282Z,3420.00
2019-04-23T12:52:05.121Z,2868.75
2019-04-23T12:53:01.173Z,697.50
2019-04-23T12:54:16.151Z,703.13
2019-04-23T12:55:19.309Z,725.63
2019-04-23T12:56:02.488Z,708.75
2019-04-23T12:57:14.779Z,720.00
2019-04-23T12:58:01.201Z,714.38
2019-04-23T12:58:56.295Z,703.13
2019-04-23T13:00:05.206Z,736.88
2019-04-23T13:00:57.451Z,1130.63
2019-04-23T13:02:08.155Z,1096.88
2019-04-23T13:03:16.526Z,1040.63
2019-04-23T13:04:00.151Z,990.00
2019-04-23T13:05:05.237Z,826.88
2019-04-23T13:05:57.511Z,984.38
2019-04-23T13:07:11.406Z,776.25
2019-04-23T13:08:05.704Z,495.00
2019-04-23T13:09:07.846Z,388.13
2019-04-23T13:11:07.170Z,241.88
2019-04-23T13:12:18.249Z,241.88
2019-04-23T13:13:09.282Z,264.38
2019-04-23T13:15:02.897Z,331.88
2019-04-23T13:16:05.913Z,360.00
2019-04-23T13:18:59.468Z,388.13
2019-04-23T13:20:00.705Z,433.13
2019-04-23T13:21:07.070Z,461.25
2019-04-23T13:23:16.532Z,596.25
2019-04-23T13:23:54.651Z,765.00
2019-04-23T13:25:01.976Z,810.00
2019-04-23T13:25:57.174Z,720.00
2019-04-23T13:27:04.349Z,708.75
2019-04-23T13:29:03.123Z,568.13
2019-04-23T13:31:58.981Z,500.63
2019-04-23T13:33:08.053Z,399.38
2019-04-23T13:33:59.971Z,337.50
2019-04-23T13:35:22.101Z,337.50
2019-04-23T13:37:08.320Z,511.88
2019-04-23T13:38:06.898Z,641.25
2019-04-23T13:39:02.365Z,680.63
2019-04-23T13:40:00.230Z,500.63
2019-04-23T13:42:05.169Z,281.25
2019-04-23T13:43:17.466Z,253.13
2019-04-23T13:43:52.736Z,236.25
2019-04-23T13:45:05.462Z,241.88
2019-04-23T13:46:03.637Z,270.00
2019-04-23T13:47:10.584Z,303.75
2019-04-23T13:49:02.159Z,264.38
2019-04-23T13:50:09.022Z,286.88
2019-04-23T13:52:05.844Z,326.25
2019-04-23T13:53:28.769Z,298.13
2019-04-23T13:53:59.040Z,241.88
2019-04-23T13:56:01.960Z,247.50
2019-04-23T13:59:09.620Z,270.00
2019-04-23T14:00:24.909Z,326.25
2019-04-23T14:02:04.098Z,478.13
2019-04-23T14:04:07.698Z,376.88
2019-04-23T14:05:01.355Z,275.63
2019-04-23T14:06:10.680Z,208.13
2019-04-23T14:07:10.755Z,180.00
2019-04-23T14:08:12.995Z,174.38
2019-04-23T14:08:59.864Z,191.25
2019-04-23T14:10:13.688Z,230.63
2019-04-23T14:11:03.602Z,270.00
2019-04-23T14:11:58.655Z,281.25
2019-04-23T14:13:24.070Z,253.13
2019-04-23T14:15:04.552Z,236.25
2019-04-23T14:16:04.237Z,258.75
2019-04-23T14:17:08.352Z,275.63
2019-04-23T14:19:47.591Z,275.63
2019-04-23T14:20:40.450Z,337.50
2019-04-23T14:24:30.862Z,270.00
2019-04-23T14:26:25.932Z,326.25
2019-04-23T14:27:44.638Z,376.88
2019-04-23T14:28:28.755Z,416.25
2019-04-23T14:29:26.389Z,483.75
2019-04-23T14:30:37.292Z,534.38
2019-04-23T14:31:19.020Z,534.38
2019-04-23T14:32:23.228Z,545.63
2019-04-23T14:33:26.517Z,551.25
2019-04-23T14:34:20.872Z,427.50
2019-04-23T14:36:22.897Z,281.25
2019-04-23T14:37:22.035Z,247.50
2019-04-23T14:38:23.525Z,225.00
2019-04-23T14:39:24.015Z,219.38
2019-04-23T14:40:27.784Z,225.00
2019-04-23T14:42:28.062Z,191.25
2019-04-23T14:45:29.837Z,208.13
2019-04-23T14:46:53.048Z,241.88
2019-04-23T14:47:24.249Z,264.38
2019-04-23T14:49:24.656Z,286.88
2019-04-23T14:51:44.193Z,219.38
2019-04-23T14:52:21.259Z,180.00
2019-04-23T14:53:22.753Z,163.13
2019-04-23T14:54:24.768Z,163.13
2019-04-23T14:57:24.772Z,151.88
2019-04-23T14:58:23.464Z,151.88
2019-04-23T14:59:10.595Z,157.50
2019-04-23T15:00:29.366Z,163.13
2019-04-23T15:01:30.298Z,168.75
2019-04-23T15:02:20.772Z,168.75
2019-04-23T15:03:27.340Z,168.75
2019-04-23T15:04:25.226Z,163.13
2019-04-23T15:05:17.374Z,168.75
2019-04-23T15:06:36.283Z,163.13
2019-04-23T15:07:22.338Z,174.38
2019-04-23T15:08:28.747Z,168.75
2019-04-23T15:09:28.108Z,151.88